Time;durP1;ratioP1;P1;durP2;ratioP2;P2;SDS_P1;SDS_P2;PMS_P1;PMS_P2;Temp;Humidity;BMP_temperature;BMP_pressure;BME280_temperature;BME280_humidity;BME280_pressure;Samples;Min_cycle;Max_cycle;Signal;HPM_P1;HPM_P2
2022/08/26 00:00:45;;;;;;;16.17;4.47;;;;;;;19.07;72.87;93137.06;5050114;28;20028;-64
2022/08/26 00:03:12;;;;;;;16.48;5.07;;;;;;;19.03;72.61;93128.44;5049868;28;20534;-65
2022/08/26 00:05:38;;;;;;;30.02;7.47;;;;;;;18.98;72.87;93135.13;5048591;28;20040;-64
2022/08/26 00:08:04;;;;;;;13.30;4.63;;;;;;;19.04;72.19;93134.72;5049845;28;20037;-63
2022/08/26 00:10:30;;;;;;;36.97;6.00;;;;;;;18.99;73.05;93131.00;5032991;28;20052;-63
2022/08/26 00:12:55;;;;;;;15.15;3.65;;;;;;;18.88;72.91;93117.75;5029938;28;20486;-64
2022/08/26 00:15:21;;;;;;;13.50;4.65;;;;;;;18.90;72.53;93117.88;5030045;28;20086;-64
2022/08/26 00:17:47;;;;;;;14.85;4.32;;;;;;;18.87;73.17;93107.91;5029461;28;20029;-63
2022/08/26 00:20:15;;;;;;;7.28;2.95;;;;;;;18.86;72.44;93120.44;5030016;28;20029;-63
2022/08/26 00:22:41;;;;;;;6.43;3.50;;;;;;;18.61;72.94;93109.91;5028488;28;20500;-63
2022/08/26 00:25:08;;;;;;;8.00;3.47;;;;;;;18.61;73.71;93097.97;5029956;28;20053;-64
2022/08/26 00:27:33;;;;;;;4.95;2.58;;;;;;;18.66;73.61;93099.69;5029957;28;20025;-62
2022/08/26 00:30:00;;;;;;;22.70;21.38;;;;;;;18.59;73.14;93100.66;5029868;28;20383;-63
2022/08/26 00:32:26;;;;;;;8.38;3.72;;;;;;;18.56;73.44;93097.00;5029601;28;20033;-63
2022/08/26 00:34:52;;;;;;;6.32;3.47;;;;;;;18.56;74.26;93083.03;5029355;28;20463;-64
2022/08/26 00:37:17;;;;;;;4.47;2.95;;;;;;;18.52;74.12;93082.78;5029729;28;20021;-63
2022/08/26 00:39:43;;;;;;;2.40;2.10;;;;;;;18.49;74.03;93080.50;5029713;28;20030;-63
2022/08/26 00:42:08;;;;;;;8.30;7.68;;;;;;;18.59;72.82;93087.41;5047211;28;20493;-62
2022/08/26 00:44:34;;;;;;;12.52;11.40;;;;;;;18.49;72.98;93075.66;5049310;28;20031;-65
2022/08/26 00:47:03;;;;;;;9.43;7.47;;;;;;;18.44;73.77;93081.56;5049460;28;20029;-63
2022/08/26 00:49:35;;;;;;;44.40;41.28;;;;;;;18.44;73.31;93090.72;5048028;28;20032;-64
2022/08/26 00:52:03;;;;;;;6.88;6.38;;;;;;;18.52;72.48;93093.97;5049450;28;20406;-65
2022/08/26 00:54:33;;;;;;;1.58;1.48;;;;;;;18.12;74.49;93091.56;5048174;28;20086;-66
2022/08/26 00:57:02;;;;;;;3.90;2.70;;;;;;;17.96;75.27;93094.09;5048237;28;20417;-64
2022/08/26 00:59:29;;;;;;;10.05;9.55;;;;;;;17.99;74.89;93087.31;5047910;28;20169;-64
2022/08/26 01:01:55;;;;;;;16.50;15.57;;;;;;;18.04;74.93;93091.78;5048002;28;20037;-63
2022/08/26 01:04:22;;;;;;;2.15;1.80;;;;;;;18.04;75.68;93099.44;5048959;28;20040;-64
2022/08/26 01:06:50;;;;;;;1.48;1.38;;;;;;;18.21;74.05;93103.94;5047711;28;20082;-65
2022/08/26 01:09:17;;;;;;;1.50;1.40;;;;;;;18.27;73.60;93110.63;5042250;28;20036;-64
2022/08/26 01:11:42;;;;;;;5.03;3.70;;;;;;;18.30;74.63;93103.81;5027669;28;20045;-63
2022/08/26 01:14:10;;;;;;;4.03;3.83;;;;;;;18.30;74.72;93103.09;5029237;28;20501;-64
2022/08/26 01:16:36;;;;;;;3.28;1.77;;;;;;;18.33;75.33;93110.25;5028943;28;20486;-64
2022/08/26 01:19:09;;;;;;;4.93;2.03;;;;;;;18.35;74.92;93107.56;5028470;28;20033;-64
2022/08/26 01:21:40;;;;;;;3.33;2.13;;;;;;;18.44;74.98;93103.94;5027932;28;20026;-65
2022/08/26 01:24:06;;;;;;;2.58;1.77;;;;;;;18.44;74.55;93113.09;5027913;28;20025;-65
2022/08/26 01:26:33;;;;;;;1.45;1.30;;;;;;;18.50;74.21;93109.91;5027840;28;20032;-63
2022/08/26 01:29:01;;;;;;;2.03;1.77;;;;;;;18.44;74.56;93120.69;5027763;28;20085;-64
2022/08/26 01:31:33;;;;;;;2.40;1.75;;;;;;;18.48;74.61;93118.16;5027522;28;20021;-64
2022/08/26 01:34:09;;;;;;;2.05;1.55;;;;;;;18.42;74.43;93112.94;5027762;28;20077;-63
2022/08/26 01:36:36;;;;;;;2.38;1.83;;;;;;;18.57;74.13;93120.84;5031869;28;20025;-63
2022/08/26 01:39:02;;;;;;;2.25;1.63;;;;;;;18.60;73.75;93114.03;5048420;28;20519;-64
2022/08/26 01:41:27;;;;;;;4.05;1.90;;;;;;;18.57;73.72;93114.53;5048365;28;20120;-64
2022/08/26 01:43:55;;;;;;;2.00;1.60;;;;;;;18.57;74.42;93108.94;5048311;28;20040;-63
2022/08/26 01:46:21;;;;;;;1.85;1.38;;;;;;;18.63;73.86;93107.22;5047614;28;20028;-63
2022/08/26 01:48:48;;;;;;;5.95;1.95;;;;;;;18.59;74.07;93103.47;5047120;28;20032;-63
2022/08/26 01:51:14;;;;;;;1.33;1.23;;;;;;;18.59;73.83;93103.47;5048539;28;20025;-63
2022/08/26 01:53:40;;;;;;;1.33;1.20;;;;;;;18.64;73.19;93096.78;5030376;28;20489;-63
2022/08/26 01:56:07;;;;;;;3.72;1.52;;;;;;;18.62;73.26;93096.66;5047269;28;20061;-63
2022/08/26 01:58:40;;;;;;;2.38;1.83;;;;;;;18.50;74.07;93090.34;5046867;28;20059;-63
2022/08/26 02:01:06;;;;;;;6.00;1.65;;;;;;;18.51;74.27;93109.31;5048530;28;20107;-63
2022/08/26 02:03:32;;;;;;;1.83;1.73;;;;;;;18.53;73.73;93103.09;5048260;28;20049;-63
2022/08/26 02:06:01;;;;;;;2.38;1.70;;;;;;;18.53;73.73;93091.91;5048293;28;20516;-64
2022/08/26 02:08:36;;;;;;;4.32;1.60;;;;;;;18.48;74.00;93090.94;5046854;28;20024;-63
2022/08/26 02:11:02;;;;;;;4.93;2.58;;;;;;;18.46;74.18;93093.63;5027834;28;20049;-63
2022/08/26 02:13:30;;;;;;;2.30;1.73;;;;;;;18.47;73.97;93088.78;5028299;28;20416;-63
2022/08/26 02:15:56;;;;;;;1.55;1.45;;;;;;;18.54;73.12;93093.34;5043640;28;20035;-62
2022/08/26 02:18:23;;;;;;;1.65;1.48;;;;;;;18.53;73.02;93091.91;5038684;28;20029;-62
2022/08/26 02:20:48;;;;;;;1.55;1.40;;;;;;;18.40;73.77;93093.25;5027853;28;20074;-63
2022/08/26 02:23:14;;;;;;;1.88;1.48;;;;;;;18.37;74.22;93090.91;5027949;28;20033;-63
2022/08/26 02:25:46;;;;;;;1.52;1.42;;;;;;;18.28;75.19;93097.38;5027737;28;20455;-64
2022/08/26 02:28:13;;;;;;;1.88;1.45;;;;;;;18.27;74.53;93096.66;5026670;28;20021;-63
2022/08/26 02:30:39;;;;;;;2.25;1.40;;;;;;;18.26;74.57;93091.69;5028078;28;20455;-67
2022/08/26 02:33:05;;;;;;;2.63;1.70;;;;;;;18.12;75.84;93099.94;5031578;28;20029;-64
2022/08/26 02:35:32;;;;;;;4.65;2.00;;;;;;;18.18;74.34;93098.22;5047833;28;20085;-65
2022/08/26 02:37:59;;;;;;;1.60;1.30;;;;;;;18.16;74.48;93095.31;5047512;28;20025;-65
2022/08/26 02:40:29;;;;;;;2.20;1.80;;;;;;;18.19;75.67;93088.50;5047715;28;20409;-65
2022/08/26 02:42:55;;;;;;;4.43;2.28;;;;;;;18.13;74.98;93090.94;5047526;28;20051;-65
2022/08/26 02:45:21;;;;;;;1.52;1.42;;;;;;;18.14;75.64;93086.81;5047379;28;20025;-65
2022/08/26 02:47:47;;;;;;;2.65;1.58;;;;;;;18.12;75.42;93088.75;5047757;28;20036;-65
2022/08/26 02:50:12;;;;;;;1.90;1.48;;;;;;;18.04;75.77;93088.28;5047651;28;20032;-64
2022/08/26 02:52:38;;;;;;;1.90;1.80;;;;;;;18.06;75.88;93091.91;5047368;28;20029;-64
2022/08/26 02:55:05;;;;;;;4.00;1.88;;;;;;;18.09;75.47;93087.16;5047261;28;20064;-64
2022/08/26 02:57:30;;;;;;;4.15;1.58;;;;;;;18.19;74.61;93088.50;5047066;28;20521;-64
2022/08/26 02:59:56;;;;;;;2.25;1.42;;;;;;;18.18;74.87;93087.06;5047226;28;20086;-64
2022/08/26 03:02:22;;;;;;;2.30;1.48;;;;;;;18.23;74.49;93082.44;5047365;28;20032;-64
2022/08/26 03:04:49;;;;;;;2.05;1.60;;;;;;;18.08;74.87;93078.06;5047164;28;20029;-65
2022/08/26 03:07:14;;;;;;;5.10;1.70;;;;;;;18.15;74.52;93079.88;5047397;28;20097;-64
2022/08/26 03:09:40;;;;;;;1.40;1.10;;;;;;;18.17;74.53;93084.84;5037401;28;20029;-65
2022/08/26 03:12:05;;;;;;;3.28;2.08;;;;;;;18.11;75.13;93078.91;5027156;28;20049;-65
2022/08/26 03:14:31;;;;;;;1.83;1.45;;;;;;;18.17;75.09;93087.66;5027376;28;20033;-65
2022/08/26 03:16:56;;;;;;;1.98;1.63;;;;;;;18.17;74.93;93084.84;5027485;28;20031;-65
2022/08/26 03:19:24;;;;;;;1.65;1.55;;;;;;;18.15;75.13;93093.84;5026415;28;20048;-64
2022/08/26 03:21:51;;;;;;;1.30;1.20;;;;;;;18.08;75.69;93086.44;5027332;28;20052;-65
2022/08/26 03:24:16;;;;;;;1.40;1.13;;;;;;;18.17;74.82;93093.22;5027073;28;20021;-65
2022/08/26 03:26:42;;;;;;;3.13;1.58;;;;;;;18.24;74.65;93083.88;5027339;28;20033;-65
2022/08/26 03:31:53;;;;;;;4.95;3.55;;;;;;;18.16;74.95;93084.16;5047125;28;20081;-65
2022/08/26 03:34:18;;;;;;;2.95;2.70;;;;;;;18.15;74.93;93079.16;5046901;28;20036;-65
2022/08/26 03:36:44;;;;;;;11.23;10.57;;;;;;;18.06;75.44;93097.47;5047025;28;20029;-65
2022/08/26 03:39:11;;;;;;;1.38;1.27;;;;;;;18.06;75.53;93094.69;5046742;28;20037;-65
2022/08/26 03:41:36;;;;;;;1.58;1.48;;;;;;;18.05;75.87;93101.63;5046712;28;20028;-64
2022/08/26 03:44:04;;;;;;;1.45;1.27;;;;;;;18.09;75.00;93092.75;5046929;28;20138;-65
2022/08/26 03:46:31;;;;;;;2.58;1.67;;;;;;;18.19;74.81;93098.97;5046725;28;20462;-64
2022/08/26 03:48:57;;;;;;;1.42;1.30;;;;;;;18.15;75.58;93088.25;5046963;28;20035;-65
2022/08/26 03:51:23;;;;;;;1.27;1.17;;;;;;;18.05;75.62;93093.25;5046584;28;20029;-64
2022/08/26 03:53:49;;;;;;;1.48;1.30;;;;;;;18.00;76.08;93083.16;5046607;28;20032;-65
2022/08/26 03:56:14;;;;;;;6.22;5.90;;;;;;;18.11;76.18;93085.22;5046758;28;20033;-64
2022/08/26 03:58:40;;;;;;;3.40;1.80;;;;;;;18.02;75.39;93068.56;5046768;28;20036;-65
2022/08/26 04:01:05;;;;;;;1.70;1.60;;;;;;;18.09;75.65;93093.50;5046711;28;20077;-65
2022/08/26 04:06:16;;;;;;;2.38;2.00;;;;;;;18.12;75.63;93078.31;5046791;28;20108;-64
2022/08/26 04:08:41;;;;;;;5.38;1.92;;;;;;;18.13;75.62;93088.16;5046028;28;20044;-64
2022/08/26 04:11:07;;;;;;;4.25;1.65;;;;;;;18.16;75.22;93077.81;5029801;28;20540;-65
2022/08/26 04:13:33;;;;;;;4.90;1.80;;;;;;;18.07;74.92;93073.81;5029854;28;20029;-65
2022/08/26 04:15:58;;;;;;;2.17;2.00;;;;;;;18.06;75.14;93077.22;5029920;28;20033;-65
2022/08/26 04:18:26;;;;;;;3.13;1.80;;;;;;;18.04;74.21;93068.72;5029438;28;20049;-65
2022/08/26 04:20:52;;;;;;;3.25;1.75;;;;;;;18.03;74.77;93078.44;5030015;28;20121;-65
2022/08/26 04:23:18;;;;;;;2.25;2.03;;;;;;;18.08;75.18;93078.06;5029813;28;20478;-64
2022/08/26 04:25:43;;;;;;;2.50;1.88;;;;;;;18.11;74.94;93082.44;5035806;28;20036;-64
2022/08/26 04:28:09;;;;;;;2.38;1.48;;;;;;;18.16;74.81;93072.97;5049577;28;20025;-64
2022/08/26 04:30:38;;;;;;;4.18;1.45;;;;;;;18.08;76.28;93078.06;5049805;28;20113;-63
2022/08/26 04:33:04;;;;;;;5.40;2.20;;;;;;;18.20;75.15;93080.84;5048589;28;20512;-64
2022/08/26 04:35:30;;;;;;;2.00;1.35;;;;;;;18.25;75.16;93084.63;5049392;28;20029;-64
2022/08/26 04:37:55;;;;;;;2.45;1.70;;;;;;;18.19;75.83;93082.91;5049380;28;20504;-63
2022/08/26 04:40:22;;;;;;;5.15;1.90;;;;;;;18.14;75.92;93081.22;5049640;28;20025;-65
2022/08/26 04:42:48;;;;;;;1.60;1.40;;;;;;;18.08;75.96;93071.75;5049356;28;20097;-67
2022/08/26 04:45:13;;;;;;;3.28;1.83;;;;;;;18.10;76.45;93094.94;5049332;28;20033;-65
2022/08/26 04:47:39;;;;;;;1.10;1.10;;;;;;;18.17;74.84;93088.38;5049212;28;20328;-66
2022/08/26 04:50:06;;;;;;;2.20;1.80;;;;;;;18.19;75.07;93088.50;5049433;28;20039;-65
2022/08/26 04:52:32;;;;;;;1.98;1.60;;;;;;;18.07;75.40;93070.28;5049096;28;20073;-64
2022/08/26 04:54:58;;;;;;;4.45;1.83;;;;;;;18.36;74.06;93084.63;5049382;28;20032;-65
2022/08/26 04:57:24;;;;;;;2.08;1.75;;;;;;;18.41;74.79;93094.69;5049365;28;20502;-64
2022/08/26 04:59:49;;;;;;;2.28;1.65;;;;;;;18.43;74.61;93089.22;5049092;28;20346;-65
2022/08/26 05:02:15;;;;;;;1.30;1.20;;;;;;;18.46;74.66;93090.09;5048940;28;20054;-64
2022/08/26 05:04:42;;;;;;;6.75;1.90;;;;;;;18.55;75.21;93092.03;5050026;28;20506;-65
2022/08/26 05:07:09;;;;;;;3.83;2.63;;;;;;;18.68;74.56;93092.16;5049270;28;20448;-65
2022/08/26 05:09:36;;;;;;;3.15;1.75;;;;;;;18.77;73.34;93090.53;5039995;28;20025;-65
2022/08/26 05:12:02;;;;;;;3.40;2.08;;;;;;;18.79;72.94;93096.25;5028916;28;20102;-65
2022/08/26 05:14:27;;;;;;;2.47;1.90;;;;;;;18.76;74.44;93086.28;5029230;28;20017;-65
2022/08/26 05:16:53;;;;;;;3.70;1.80;;;;;;;18.84;75.27;93089.56;5028946;28;20030;-65
2022/08/26 05:19:18;;;;;;;3.33;1.83;;;;;;;18.87;75.12;93096.72;5027129;28;20037;-65
2022/08/26 05:21:44;;;;;;;2.60;1.65;;;;;;;18.93;75.02;93088.66;5032996;28;20036;-65
2022/08/26 05:24:11;;;;;;;1.95;1.83;;;;;;;18.96;73.79;93095.84;5048978;28;20050;-65
2022/08/26 05:26:36;;;;;;;1.55;1.40;;;;;;;18.89;74.85;93105.22;5048578;28;20040;-65
2022/08/26 05:29:02;;;;;;;3.35;2.17;;;;;;;19.01;75.27;93096.81;5048825;28;20025;-66
2022/08/26 05:31:30;;;;;;;1.42;1.30;;;;;;;19.06;74.31;93104.09;5048903;28;20042;-64
2022/08/26 05:33:56;;;;;;;1.58;1.48;;;;;;;19.10;73.40;93091.03;5048510;28;20557;-66
2022/08/26 05:36:25;;;;;;;2.40;1.50;;;;;;;19.11;73.34;93092.50;5048444;28;20515;-65
2022/08/26 05:38:51;;;;;;;3.55;1.40;;;;;;;19.15;74.25;93095.53;5048472;28;20037;-64
2022/08/26 05:41:23;;;;;;;1.65;1.50;;;;;;;19.14;74.33;93098.97;5048660;28;20033;-65
2022/08/26 05:43:50;;;;;;;3.47;2.22;;;;;;;19.22;74.16;93100.13;5047546;28;20079;-65
2022/08/26 05:46:16;;;;;;;3.00;1.67;;;;;;;19.35;73.56;93105.09;5048675;28;20033;-65
2022/08/26 05:48:42;;;;;;;1.63;1.50;;;;;;;19.40;73.90;93100.47;5048252;28;20418;-66
2022/08/26 05:51:09;;;;;;;4.20;1.80;;;;;;;19.51;73.90;93100.38;5048573;28;20048;-65
2022/08/26 05:53:35;;;;;;;2.05;1.60;;;;;;;19.60;73.90;93101.56;5048181;28;20036;-65
2022/08/26 05:56:02;;;;;;;1.88;1.67;;;;;;;19.78;72.58;93102.56;5048131;28;20070;-66
2022/08/26 05:58:28;;;;;;;4.15;1.70;;;;;;;19.70;73.29;93102.13;5047321;28;20028;-65
2022/08/26 06:01:02;;;;;;;4.20;1.80;;;;;;;19.84;73.84;93114.09;5048327;28;20462;-65
2022/08/26 06:03:30;;;;;;;2.15;1.45;;;;;;;19.92;73.09;93114.56;5048154;28;20060;-66
2022/08/26 06:05:56;;;;;;;1.50;1.25;;;;;;;19.92;72.42;93119.44;5048004;28;20557;-65
2022/08/26 06:08:21;;;;;;;2.30;2.00;;;;;;;19.91;72.80;93118.69;5047891;28;20025;-66
2022/08/26 06:10:58;;;;;;;2.80;1.50;;;;;;;19.95;72.51;93124.50;5028694;28;20045;-65
2022/08/26 06:13:25;;;;;;;3.22;1.35;;;;;;;19.98;71.75;93117.69;5028272;28;20116;-64
2022/08/26 06:15:53;;;;;;;1.88;1.33;;;;;;;20.06;71.58;93120.19;5028075;28;20482;-65
2022/08/26 06:18:26;;;;;;;1.98;1.60;;;;;;;20.04;73.40;93123.63;5034509;28;20414;-66
2022/08/26 06:20:53;;;;;;;1.90;1.80;;;;;;;20.10;72.34;93132.34;5047712;28;20037;-66
2022/08/26 06:26:05;;;;;;;1.27;1.17;;;;;;;20.26;70.09;93127.63;5068146;28;20029;-66
2022/08/26 06:44:35;;;;;;;1.10;1.00;;;;;;;21.18;62.63;93141.50;5128462;27;20622;-65
2022/08/26 06:47:01;;;;;;;3.00;1.80;;;;;;;21.01;63.11;93134.28;5127177;28;20123;-66
2022/08/26 06:49:26;;;;;;;1.48;1.30;;;;;;;21.11;64.16;93151.69;5128658;27;20049;-66
2022/08/26 06:51:52;;;;;;;4.40;2.00;;;;;;;21.28;64.31;93147.59;5107877;27;20043;-66
2022/08/26 06:54:18;;;;;;;1.60;1.50;;;;;;;21.41;63.39;93144.78;5107821;28;20028;-66
2022/08/26 06:56:43;;;;;;;2.95;1.90;;;;;;;21.71;60.63;93156.75;5107790;28;20024;-66
2022/08/26 06:59:10;;;;;;;1.70;1.42;;;;;;;21.88;61.86;93154.13;5107672;28;20031;-66
2022/08/26 07:01:39;;;;;;;2.05;1.50;;;;;;;22.04;62.06;93145.00;5107690;28;20023;-66
2022/08/26 07:04:05;;;;;;;1.35;1.25;;;;;;;22.31;60.79;93150.47;5107950;28;20015;-66
2022/08/26 07:06:36;;;;;;;3.03;1.90;;;;;;;22.44;59.29;93150.38;5107901;28;20038;-65
2022/08/26 07:09:03;;;;;;;1.40;1.23;;;;;;;22.56;57.59;93142.50;5127342;28;20053;-65
2022/08/26 07:11:31;;;;;;;1.50;1.40;;;;;;;22.70;58.19;93153.69;5128273;27;20338;-66
2022/08/26 07:13:57;;;;;;;1.70;1.48;;;;;;;22.79;59.14;93149.88;5127846;27;20015;-66
2022/08/26 07:16:24;;;;;;;4.65;1.45;;;;;;;22.91;57.17;93144.03;5128147;27;20027;-66
2022/08/26 07:18:51;;;;;;;1.98;1.45;;;;;;;22.99;57.60;93147.94;5127767;27;20030;-65
2022/08/26 07:21:17;;;;;;;1.48;1.17;;;;;;;22.95;56.59;93147.03;5127776;27;20019;-67
2022/08/26 07:23:43;;;;;;;1.83;1.38;;;;;;;23.15;55.19;93147.91;5127691;27;20035;-66
2022/08/26 07:26:14;;;;;;;3.22;2.13;;;;;;;23.34;56.19;93152.97;5127640;27;20103;-66
2022/08/26 07:28:40;;;;;;;2.60;1.52;;;;;;;23.37;55.22;93146.03;5127915;27;20019;-66
2022/08/26 07:31:08;;;;;;;5.25;2.00;;;;;;;23.43;54.86;93151.94;5127605;27;20035;-66
2022/08/26 07:33:34;;;;;;;5.35;1.85;;;;;;;23.60;53.76;93154.06;5127761;27;20011;-66
2022/08/26 07:36:00;;;;;;;6.30;2.28;;;;;;;23.82;53.61;93146.50;5127444;27;20057;-66
2022/08/26 07:38:26;;;;;;;2.15;1.33;;;;;;;24.13;51.66;93148.44;5127441;27;20503;-67
2022/08/26 07:40:51;;;;;;;5.32;1.23;;;;;;;24.49;51.00;93154.78;5126934;27;20050;-66
2022/08/26 07:43:17;;;;;;;1.73;1.55;;;;;;;24.77;50.26;93153.03;5127043;27;20445;-65
2022/08/26 07:45:42;;;;;;;3.65;1.75;;;;;;;25.02;49.50;93155.38;5113055;28;20415;-66
2022/08/26 07:48:08;;;;;;;2.97;1.25;;;;;;;25.20;47.59;93156.00;5113580;28;20026;-65
2022/08/26 07:50:34;;;;;;;4.63;1.38;;;;;;;25.35;49.16;93148.75;5113809;28;20019;-66
2022/08/26 07:53:01;;;;;;;2.22;1.45;;;;;;;25.54;48.45;93148.00;5113422;27;20030;-66
2022/08/26 07:55:27;;;;;;;2.65;1.30;;;;;;;25.92;48.65;93146.47;5113463;27;20028;-66
2022/08/26 07:57:53;;;;;;;1.73;1.58;;;;;;;26.59;45.90;93154.94;5113362;28;20027;-66
2022/08/26 08:00:18;;;;;;;2.15;1.60;;;;;;;27.31;45.93;93147.13;5113684;28;20099;-67
2022/08/26 08:02:43;;;;;;;1.88;1.25;;;;;;;27.86;43.00;93141.47;5113584;28;20537;-67
2022/08/26 08:05:11;;;;;;;1.88;1.52;;;;;;;27.99;41.31;93136.84;5113554;28;20024;-65
2022/08/26 08:07:37;;;;;;;2.83;1.08;;;;;;;28.40;40.72;93148.50;5113581;28;20088;-65
2022/08/26 08:10:04;;;;;;;1.95;1.45;;;;;;;28.89;39.85;93136.09;5113444;28;20102;-66
2022/08/26 08:12:29;;;;;;;1.83;1.35;;;;;;;29.38;39.35;93132.13;5113025;28;20072;-65
2022/08/26 08:14:55;;;;;;;3.97;1.30;;;;;;;29.86;36.50;93135.16;5113048;28;20331;-66
2022/08/26 08:17:20;;;;;;;8.70;2.15;;;;;;;30.31;36.56;93136.63;5113337;28;20023;-66
2022/08/26 08:19:46;;;;;;;5.75;1.58;;;;;;;30.53;33.21;93132.00;5112968;28;20023;-66
2022/08/26 08:22:12;;;;;;;2.70;1.10;;;;;;;30.59;34.71;93137.06;5113216;27;20115;-66
2022/08/26 08:24:37;;;;;;;5.82;2.00;;;;;;;30.63;35.33;93137.13;5112860;28;20042;-66
2022/08/26 08:27:03;;;;;;;2.10;1.27;;;;;;;30.53;34.25;93140.56;5113161;28;20023;-64
2022/08/26 08:29:29;;;;;;;1.50;1.15;;;;;;;30.40;35.02;93138.22;5113182;28;20512;-65
2022/08/26 08:31:55;;;;;;;4.60;1.70;;;;;;;30.21;36.89;93142.88;5112773;27;20031;-65
2022/08/26 08:34:22;;;;;;;2.00;1.20;;;;;;;30.48;35.08;93139.06;5112717;28;20109;-65
2022/08/26 08:36:49;;;;;;;1.10;0.93;;;;;;;30.94;34.27;93141.88;5112694;28;20081;-64
2022/08/26 08:39:15;;;;;;;1.95;1.25;;;;;;;30.88;32.72;93141.06;5112658;28;20024;-65
2022/08/26 08:41:59;;;;;;;2.28;1.70;;;;;;;31.11;33.99;93137.09;5107846;28;20015;-66
2022/08/26 08:44:25;;;;;;;2.63;0.93;;;;;;;31.31;33.65;93140.91;5111294;28;20047;-66
2022/08/26 08:46:57;;;;;;;1.23;1.13;;;;;;;31.30;31.33;93136.59;5112783;28;20058;-65
2022/08/26 08:49:24;;;;;;;3.38;1.33;;;;;;;31.31;32.71;93134.47;5111558;28;20020;-65
2022/08/26 08:52:17;;;;;;;1.83;1.33;;;;;;;31.09;34.53;93134.94;5112529;28;20184;-65
2022/08/26 08:54:43;;;;;;;1.30;1.10;;;;;;;31.01;35.02;93129.13;5112202;28;20165;-64
2022/08/26 08:57:17;;;;;;;1.42;1.30;;;;;;;30.76;36.18;93129.44;5111254;28;20118;-65
2022/08/26 09:00:00;;;;;;;3.05;1.45;;;;;;;30.16;34.62;93127.13;5111011;28;20027;-64
2022/08/26 09:02:33;;;;;;;1.77;0.95;;;;;;;29.92;35.61;93130.31;5111027;28;20027;-64
2022/08/26 09:05:06;;;;;;;1.48;1.38;;;;;;;29.85;36.58;93120.22;5112385;27;20404;-65
2022/08/26 09:07:38;;;;;;;1.55;1.10;;;;;;;29.60;34.19;93126.13;5112615;28;20077;-64
2022/08/26 09:10:42;;;;;;;2.58;1.50;;;;;;;29.25;34.52;93130.47;5110860;28;20011;-65
2022/08/26 09:13:16;;;;;;;5.35;1.27;;;;;;;28.79;36.84;93120.94;5111026;28;20024;-66
2022/08/26 09:16:07;;;;;;;2.35;1.38;;;;;;;28.50;37.99;93126.00;5112134;28;20023;-66
2022/08/26 09:18:42;;;;;;;1.60;1.13;;;;;;;28.74;39.20;93127.97;5111023;28;20023;-65
2022/08/26 09:21:10;;;;;;;1.85;1.20;;;;;;;29.29;38.47;93122.00;5112085;28;20019;-66
2022/08/26 09:23:39;;;;;;;2.05;1.20;;;;;;;29.39;37.59;93122.19;5111743;28;20190;-65
2022/08/26 09:26:24;;;;;;;2.20;1.20;;;;;;;30.02;37.43;93120.50;5111666;28;20032;-65
2022/08/26 09:29:03;;;;;;;1.48;1.35;;;;;;;30.86;33.54;93116.09;5111865;28;20409;-64
2022/08/26 09:31:31;;;;;;;2.88;1.50;;;;;;;31.38;33.07;93111.00;5111610;28;20027;-65
2022/08/26 09:34:15;;;;;;;3.50;1.27;;;;;;;31.66;32.82;93113.50;5111483;28;20027;-65
2022/08/26 09:36:42;;;;;;;1.95;1.30;;;;;;;31.65;31.86;93117.03;5111392;28;20031;-65
2022/08/26 09:39:23;;;;;;;2.22;1.48;;;;;;;31.72;32.15;93110.69;5093262;28;20036;-66
2022/08/26 09:42:33;;;;;;;1.35;1.05;;;;;;;31.63;30.18;93106.31;5103950;28;20026;-64
2022/08/26 09:45:02;;;;;;;3.25;1.42;;;;;;;31.82;30.23;93102.22;5101959;28;20043;-64
2022/08/26 09:47:31;;;;;;;3.65;1.40;;;;;;;32.29;29.59;93096.94;5111326;28;20114;-64
2022/08/26 09:50:04;;;;;;;1.60;1.40;;;;;;;33.15;30.22;93096.75;5111249;28;20059;-65
2022/08/26 09:52:30;;;;;;;1.42;1.23;;;;;;;33.55;28.38;93102.63;5111374;28;20027;-66
2022/08/26 09:55:19;;;;;;;1.45;0.95;;;;;;;33.97;26.36;93094.13;5109986;28;20044;-64
2022/08/26 09:57:48;;;;;;;2.35;1.15;;;;;;;33.79;26.98;93096.25;5109970;28;20100;-65
2022/08/26 10:00:36;;;;;;;2.90;2.45;;;;;;;33.45;27.53;93103.31;5111041;28;20023;-65
2022/08/26 10:03:04;;;;;;;2.28;1.00;;;;;;;34.05;27.26;93099.16;5109857;28;20023;-64
2022/08/26 10:05:36;;;;;;;3.97;2.10;;;;;;;34.39;26.18;93104.91;5110103;28;20412;-64
2022/08/26 10:08:38;;;;;;;3.95;1.42;;;;;;;34.72;25.70;93100.59;5109879;28;20039;-65
2022/08/26 10:11:15;;;;;;;4.38;2.35;;;;;;;35.49;24.59;93111.88;5088587;28;20118;-66
2022/08/26 10:13:44;;;;;;;1.67;1.47;;;;;;;36.21;22.44;93110.75;5109717;28;20027;-65
2022/08/26 10:16:35;;;;;;;3.15;2.08;;;;;;;36.62;23.18;93114.75;5110848;28;20031;-60
2022/08/26 10:19:05;;;;;;;1.10;0.93;;;;;;;36.29;23.11;93113.53;5108633;28;20119;-63
2022/08/26 10:21:49;;;;;;;2.33;1.15;;;;;;;35.37;23.23;93109.72;5109601;28;20355;-63
2022/08/26 10:24:19;;;;;;;1.10;0.98;;;;;;;34.72;26.25;93100.59;5110859;28;20031;-63
2022/08/26 10:27:06;;;;;;;1.50;1.23;;;;;;;35.24;24.83;93105.47;5109970;28;20035;-63
2022/08/26 10:29:38;;;;;;;2.05;1.48;;;;;;;34.51;25.58;93107.78;5110794;28;20084;-63
2022/08/26 10:32:11;;;;;;;2.13;1.63;;;;;;;34.09;25.79;93104.91;5109497;28;20503;-65
2022/08/26 10:34:36;;;;;;;3.40;1.40;;;;;;;34.50;24.75;93102.75;5099092;28;20055;-63
2022/08/26 10:37:12;;;;;;;1.38;1.27;;;;;;;34.39;26.55;93107.78;5089201;28;20066;-63
2022/08/26 10:39:41;;;;;;;3.47;1.25;;;;;;;34.58;27.64;93111.38;5089034;28;20048;-64
2022/08/26 10:42:31;;;;;;;2.85;1.50;;;;;;;34.48;26.60;93111.34;5104276;28;20607;-63
2022/08/26 10:45:03;;;;;;;2.88;1.60;;;;;;;34.10;26.25;93109.94;5110514;28;20042;-63
2022/08/26 10:47:37;;;;;;;1.70;1.52;;;;;;;34.44;27.33;93117.78;5093286;28;20453;-62
2022/08/26 10:50:04;;;;;;;3.38;1.80;;;;;;;34.86;25.75;93108.44;5109698;28;20055;-63
2022/08/26 10:52:40;;;;;;;3.63;1.65;;;;;;;34.57;24.79;93101.31;5110365;28;20077;-63
2022/08/26 10:55:35;;;;;;;2.35;1.92;;;;;;;34.13;24.38;93108.47;5109397;28;20036;-61
2022/08/26 10:58:03;;;;;;;4.93;2.40;;;;;;;33.52;25.53;93101.22;5101077;28;20032;-62
2022/08/26 11:03:35;;;;;;;;;;;;;;;33.53;23.99;93099.75;5110307;28;20042;-63
2022/08/26 11:06:24;;;;;;;2.25;1.38;;;;;;;33.68;25.76;93098.38;5110369;28;19961;-62
2022/08/26 11:08:55;;;;;;;2.42;1.63;;;;;;;33.78;24.17;93098.41;5109129;28;20022;-67
2022/08/26 11:11:39;;;;;;;2.20;1.73;;;;;;;32.96;26.58;93090.22;5109415;28;20051;-64
2022/08/26 11:14:18;;;;;;;2.45;1.92;;;;;;;32.28;26.62;93116.22;5110231;28;20449;-62
2022/08/26 11:16:52;;;;;;;4.07;1.88;;;;;;;31.87;26.25;93100.13;5110261;28;20028;-63
2022/08/26 11:19:40;;;;;;;1.60;1.38;;;;;;;31.34;26.37;93104.53;5111321;28;20114;-66
2022/08/26 11:22:23;;;;;;;1.97;1.40;;;;;;;31.46;27.67;93104.00;5114144;28;20059;-62
2022/08/26 11:24:51;;;;;;;3.58;1.60;;;;;;;31.04;27.41;93095.63;5114099;28;20030;-64
2022/08/26 11:27:37;;;;;;;;;;;;;;;31.35;25.38;93091.72;5114611;28;20035;-64
2022/08/26 11:30:11;;;;;;;1.92;1.38;;;;;;;31.86;26.07;93093.00;5104972;28;19914;-62
2022/08/26 11:32:40;;;;;;;2.35;1.92;;;;;;;32.38;25.42;93079.13;5093740;28;20085;-63
2022/08/26 11:35:05;;;;;;;2.08;1.42;;;;;;;33.09;24.33;93082.44;5093501;28;20035;-62
2022/08/26 11:37:40;;;;;;;1.70;1.42;;;;;;;32.79;26.76;93080.84;5093381;28;20028;-61
2022/08/26 11:40:10;;;;;;;2.70;2.47;;;;;;;32.41;28.44;93080.59;5092528;28;20258;-62
2022/08/26 11:42:42;;;;;;;2.85;2.65;;;;;;;32.63;27.82;93083.63;5112663;28;20036;-61
2022/08/26 11:45:17;;;;;;;3.92;2.90;;;;;;;32.15;28.08;93086.09;5112521;28;20031;-61
2022/08/26 11:47:43;;;;;;;4.88;1.85;;;;;;;31.61;29.09;93091.31;5113521;28;20024;-61
2022/08/26 11:50:20;;;;;;;3.40;3.05;;;;;;;30.85;30.59;93091.09;5112435;28;20023;-62
2022/08/26 11:52:52;;;;;;;1.83;1.55;;;;;;;30.45;31.31;93091.28;5113839;28;20020;-62
2022/08/26 11:55:17;;;;;;;2.95;1.90;;;;;;;30.55;32.08;93086.44;5113538;28;20031;-62
2022/08/26 11:57:46;;;;;;;3.20;1.55;;;;;;;30.47;30.95;93088.47;5113320;28;20026;-62
2022/08/26 12:00:48;;;;;;;2.30;1.60;;;;;;;30.79;28.89;93079.63;5113672;28;20034;-63
2022/08/26 12:03:19;;;;;;;2.58;1.58;;;;;;;31.09;29.10;93063.63;5111124;28;20115;-62
2022/08/26 12:05:47;;;;;;;1.40;1.30;;;;;;;31.59;29.34;93065.59;5112061;28;20488;-62
2022/08/26 12:08:17;;;;;;;2.03;1.63;;;;;;;31.86;29.14;93067.28;5112346;28;20023;-62
2022/08/26 12:10:43;;;;;;;1.33;1.23;;;;;;;31.94;27.79;93064.50;5111971;28;20102;-62